Time;durP1;ratioP1;P1;durP2;ratioP2;P2;SDS_P1;SDS_P2;PMS_P1;PMS_P2;Temp;Humidity;BMP_temperature;BMP_pressure;BME280_temperature;BME280_humidity;BME280_pressure;Samples;Min_cycle;Max_cycle;Signal;HPM_P1;HPM_P2
2021/11/16 00:00:56;;;;;;;28.35;18.80;;;;;;;6.70;85.35;102473.09;4993213;28;20038;-51
2021/11/16 00:03:24;;;;;;;34.22;22.42;;;;;;;6.70;85.21;102469.56;5000393;28;20046;-52
2021/11/16 00:05:51;;;;;;;35.28;22.75;;;;;;;6.64;84.80;102471.22;4993710;28;20126;-52
2021/11/16 00:08:19;;;;;;;31.67;20.98;;;;;;;6.64;85.56;102467.66;4993020;28;20042;-51
2021/11/16 00:10:47;;;;;;;35.38;22.95;;;;;;;6.67;85.19;102465.41;4993163;28;20050;-52
2021/11/16 00:13:15;;;;;;;30.75;21.17;;;;;;;6.70;84.93;102466.88;4994249;28;20089;-52
2021/11/16 00:15:44;;;;;;;36.45;22.42;;;;;;;6.75;84.33;102461.69;4993168;28;20039;-52
2021/11/16 00:18:14;;;;;;;37.00;22.52;;;;;;;6.74;84.37;102466.25;4993297;28;20046;-53
2021/11/16 00:20:43;;;;;;;32.47;22.27;;;;;;;6.74;84.33;102465.44;4993322;28;20408;-51
2021/11/16 00:23:21;;;;;;;33.05;20.70;;;;;;;6.72;84.57;102462.09;4992719;28;20050;-51
2021/11/16 00:25:55;;;;;;;33.55;22.65;;;;;;;6.67;84.19;102459.97;5005982;28;20038;-51
2021/11/16 00:28:23;;;;;;;31.67;21.42;;;;;;;6.68;84.55;102460.81;4992741;28;20043;-48
2021/11/16 00:30:53;;;;;;;34.63;23.38;;;;;;;6.66;84.31;102458.28;4992618;28;20050;-52
2021/11/16 00:33:21;;;;;;;32.30;22.08;;;;;;;6.59;83.90;102457.41;4992843;28;20129;-50
2021/11/16 00:35:50;;;;;;;32.03;21.17;;;;;;;6.56;84.93;102452.41;4993906;28;20046;-53
2021/11/16 00:38:19;;;;;;;34.38;22.05;;;;;;;6.57;84.63;102448.69;4979576;28;20121;-53
2021/11/16 00:40:48;;;;;;;31.92;20.80;;;;;;;6.58;84.33;102450.34;4992821;28;20521;-51
2021/11/16 00:43:16;;;;;;;29.23;19.95;;;;;;;6.49;84.59;102440.72;4992553;28;20042;-51
2021/11/16 00:45:46;;;;;;;30.38;21.17;;;;;;;6.53;85.27;102436.59;4993508;28;20121;-52
2021/11/16 00:48:17;;;;;;;28.55;20.30;;;;;;;6.61;85.41;102428.28;4992760;28;20397;-52
2021/11/16 00:50:49;;;;;;;32.38;20.27;;;;;;;6.66;84.21;102435.78;4993156;28;20113;-51
2021/11/16 00:53:16;;;;;;;32.70;22.80;;;;;;;6.71;84.19;102439.59;4992565;28;20050;-50
2021/11/16 00:55:44;;;;;;;33.42;21.98;;;;;;;6.67;83.64;102446.44;4995113;28;20129;-48
2021/11/16 00:58:12;;;;;;;31.73;22.25;;;;;;;6.64;83.70;102433.31;4996096;28;20053;-51
2021/11/16 01:00:40;;;;;;;30.48;21.20;;;;;;;6.69;84.27;102435.41;4991299;28;20421;-51
2021/11/16 01:03:07;;;;;;;35.15;23.17;;;;;;;6.72;84.58;102430.41;4992569;28;20042;-52
2021/11/16 01:05:35;;;;;;;36.50;23.10;;;;;;;6.71;84.06;102426.03;4994685;28;20034;-52
2021/11/16 01:08:03;;;;;;;35.58;23.25;;;;;;;6.67;84.47;102415.81;4997734;28;20046;-51
2021/11/16 01:10:31;;;;;;;31.45;21.77;;;;;;;6.65;84.43;102424.13;4996279;28;20038;-50
2021/11/16 01:12:58;;;;;;;34.42;22.88;;;;;;;6.68;84.67;102418.31;4996374;28;20078;-52
2021/11/16 01:15:27;;;;;;;35.80;23.15;;;;;;;6.68;84.27;102420.19;4997008;28;20046;-51
2021/11/16 01:17:54;;;;;;;33.10;22.98;;;;;;;6.69;84.44;102414.56;4996705;28;20034;-52
2021/11/16 01:20:22;;;;;;;36.05;22.90;;;;;;;6.74;84.65;102416.69;4996305;28;20042;-51
2021/11/16 01:22:53;;;;;;;32.05;22.33;;;;;;;6.73;83.87;102414.97;4996000;28;20045;-52
2021/11/16 01:25:21;;;;;;;34.58;22.85;;;;;;;6.74;84.10;102409.38;4994744;28;20115;-52
2021/11/16 01:27:49;;;;;;;34.22;22.83;;;;;;;6.76;84.45;102409.19;4997107;28;20141;-51
2021/11/16 01:30:21;;;;;;;31.55;21.33;;;;;;;6.71;83.98;102404.38;4994928;28;20108;-48
2021/11/16 01:33:02;;;;;;;36.55;24.33;;;;;;;6.61;84.66;102406.59;4996207;28;20121;-53
2021/11/16 01:35:32;;;;;;;32.50;22.67;;;;;;;6.61;85.12;102404.75;4996091;28;20034;-52
2021/11/16 01:37:59;;;;;;;31.52;21.88;;;;;;;6.49;84.66;102402.81;4996946;28;20568;-52
2021/11/16 01:40:27;;;;;;;34.95;23.15;;;;;;;6.38;85.43;102405.06;4996032;28;20050;-50
2021/11/16 01:42:55;;;;;;;32.80;22.55;;;;;;;6.42;86.15;102401.94;4995576;28;20050;-50
2021/11/16 01:45:23;;;;;;;33.50;23.15;;;;;;;6.50;85.62;102399.91;4995954;28;20058;-48
2021/11/16 01:47:51;;;;;;;32.00;23.27;;;;;;;6.55;85.23;102396.59;4997075;28;20125;-52
2021/11/16 01:50:20;;;;;;;34.75;23.63;;;;;;;6.57;85.24;102389.94;4995947;28;20125;-52
2021/11/16 01:52:49;;;;;;;30.92;22.02;;;;;;;6.60;85.48;102394.13;4995679;28;21751;-52
2021/11/16 01:55:18;;;;;;;35.03;23.80;;;;;;;6.58;84.88;102391.59;4982052;28;20076;-52
2021/11/16 01:57:46;;;;;;;36.10;24.83;;;;;;;6.50;84.94;102393.66;4995153;28;20069;-50
2021/11/16 02:00:28;;;;;;;33.08;23.25;;;;;;;6.50;85.91;102393.66;4996554;28;20038;-52
2021/11/16 02:02:56;;;;;;;30.50;21.98;;;;;;;6.57;85.52;102394.53;4989058;28;20050;-52
2021/11/16 02:05:46;;;;;;;33.03;22.48;;;;;;;6.69;85.55;102386.66;4995617;28;20120;-51
2021/11/16 02:08:15;;;;;;;35.47;22.95;;;;;;;6.75;84.99;102383.94;4994552;28;20046;-52
2021/11/16 02:10:45;;;;;;;34.55;22.70;;;;;;;6.81;84.72;102385.03;4996422;28;20121;-51
2021/11/16 02:13:14;;;;;;;35.20;24.92;;;;;;;6.83;84.86;102383.78;4995741;28;20039;-51
2021/11/16 02:15:41;;;;;;;37.28;23.80;;;;;;;6.86;84.26;102392.53;4995259;28;20073;-54
2021/11/16 02:18:11;;;;;;;33.50;22.85;;;;;;;6.86;84.73;102382.53;4994202;28;20069;-49
2021/11/16 02:20:41;;;;;;;35.25;23.65;;;;;;;6.87;84.81;102381.47;4994919;28;20076;-52
2021/11/16 02:23:09;;;;;;;32.90;23.58;;;;;;;6.88;84.09;102388.59;4995434;28;20142;-52
2021/11/16 02:25:38;;;;;;;32.47;22.60;;;;;;;6.89;84.68;102387.53;4994599;28;20100;-52
2021/11/16 02:28:06;;;;;;;35.25;24.17;;;;;;;6.91;84.59;102381.91;4994969;28;20061;-52
2021/11/16 02:30:34;;;;;;;41.22;26.27;;;;;;;6.91;83.90;102384.63;4996113;28;20045;-52
2021/11/16 02:33:03;;;;;;;34.95;23.92;;;;;;;6.89;84.46;102387.53;4995030;28;20121;-50
2021/11/16 02:35:30;;;;;;;36.95;25.30;;;;;;;6.88;84.25;102383.16;4995241;28;20054;-51
2021/11/16 02:37:59;;;;;;;38.90;25.50;;;;;;;6.83;83.72;102385.63;4994638;28;20043;-51
2021/11/16 02:40:27;;;;;;;37.75;26.50;;;;;;;6.75;84.53;102377.69;4993526;28;20394;-51
2021/11/16 02:42:55;;;;;;;37.25;25.48;;;;;;;6.70;84.65;102377.47;4995795;28;20069;-52
2021/11/16 02:45:23;;;;;;;34.38;25.13;;;;;;;6.65;84.53;102372.66;4994951;28;20121;-52
2021/11/16 02:47:51;;;;;;;35.78;24.88;;;;;;;6.66;84.82;102381.63;4994659;28;20370;-52
2021/11/16 02:50:20;;;;;;;36.10;25.55;;;;;;;6.65;85.22;102375.38;4995150;28;20386;-51
2021/11/16 02:52:48;;;;;;;34.15;25.08;;;;;;;6.73;85.70;102385.19;4995904;28;20483;-51
2021/11/16 02:55:16;;;;;;;39.22;25.88;;;;;;;6.77;85.39;102384.59;4981117;28;20089;-52
2021/11/16 02:57:45;;;;;;;36.97;24.45;;;;;;;6.81;85.03;102385.03;4994153;28;20042;-52
2021/11/16 03:00:15;;;;;;;35.33;25.00;;;;;;;6.83;84.61;102381.06;4994710;28;20378;-51
2021/11/16 03:02:45;;;;;;;36.92;25.45;;;;;;;6.81;83.75;102385.84;4995403;28;20553;-52
2021/11/16 03:05:13;;;;;;;37.13;25.95;;;;;;;6.77;84.09;102378.34;4994667;28;20034;-55
2021/11/16 03:07:48;;;;;;;36.63;25.38;;;;;;;6.71;84.43;102371.88;4998649;28;20480;-52
2021/11/16 03:10:17;;;;;;;38.70;26.17;;;;;;;6.70;84.36;102374.78;4994119;28;20050;-52
2021/11/16 03:12:45;;;;;;;37.08;25.50;;;;;;;6.71;84.90;102369.16;4995177;28;20077;-51
2021/11/16 03:15:12;;;;;;;38.22;27.17;;;;;;;6.73;84.57;102367.06;4994098;28;20569;-52
2021/11/16 03:17:40;;;;;;;36.80;26.33;;;;;;;6.69;84.50;102365.00;4994377;28;20046;-50
2021/11/16 03:20:16;;;;;;;40.33;25.95;;;;;;;6.65;85.22;102361.84;4994396;28;20104;-51
2021/11/16 03:22:53;;;;;;;37.55;26.13;;;;;;;6.66;85.16;102359.97;4995224;28;20077;-56
2021/11/16 03:25:25;;;;;;;37.25;26.00;;;;;;;6.61;85.06;102357.84;4996714;28;20509;-53
2021/11/16 03:28:00;;;;;;;35.47;24.92;;;;;;;6.50;85.08;102355.75;4996727;28;20058;-48
2021/11/16 03:30:29;;;;;;;39.22;27.33;;;;;;;6.44;85.81;102359.25;4994399;28;20054;-52
2021/11/16 03:32:58;;;;;;;40.03;26.80;;;;;;;6.43;86.10;102358.44;4995157;28;20054;-52
2021/11/16 03:35:26;;;;;;;35.97;24.70;;;;;;;6.47;86.59;102358.84;4993758;28;20409;-52
2021/11/16 03:37:57;;;;;;;36.03;25.52;;;;;;;6.52;86.21;102359.09;4980487;28;20046;-52
2021/11/16 03:40:27;;;;;;;36.75;26.23;;;;;;;6.55;85.64;102353.28;4993875;28;20154;-52
2021/11/16 03:42:55;;;;;;;38.28;26.00;;;;;;;6.51;85.42;102352.00;4993758;28;20065;-51
2021/11/16 03:45:25;;;;;;;37.40;25.35;;;;;;;6.47;85.53;102357.00;4995138;28;20042;-52
2021/11/16 03:47:54;;;;;;;40.67;27.05;;;;;;;6.44;85.87;102349.25;4993399;28;20050;-50
2021/11/16 03:50:24;;;;;;;39.22;26.45;;;;;;;6.47;86.59;102354.28;4993783;28;20050;-52
2021/11/16 03:52:54;;;;;;;37.22;25.85;;;;;;;6.54;86.41;102357.00;4993384;28;20077;-48
2021/11/16 03:55:23;;;;;;;36.95;25.58;;;;;;;6.63;85.92;102361.19;4994633;28;20050;-51
2021/11/16 03:57:55;;;;;;;37.40;26.33;;;;;;;6.70;85.57;102362.06;4993477;28;20042;-53
2021/11/16 04:00:33;;;;;;;39.05;26.77;;;;;;;6.74;85.69;102366.03;4993470;28;20109;-52
2021/11/16 04:03:02;;;;;;;36.80;26.88;;;;;;;6.75;84.98;102358.75;4993553;28;20050;-51
2021/11/16 04:05:30;;;;;;;36.72;25.95;;;;;;;6.74;85.11;102357.91;4994467;28;20038;-53
2021/11/16 04:07:58;;;;;;;36.95;25.58;;;;;;;6.74;84.95;102352.50;4992926;28;20509;-49
2021/11/16 04:10:26;;;;;;;39.10;25.08;;;;;;;6.78;85.13;102359.19;4993604;28;20150;-51
2021/11/16 04:12:54;;;;;;;39.35;25.60;;;;;;;6.82;84.99;102359.59;4993078;28;20050;-51
2021/11/16 04:15:25;;;;;;;37.85;27.60;;;;;;;6.83;85.25;102362.09;4993470;28;20093;-54
2021/11/16 04:17:55;;;;;;;39.20;27.42;;;;;;;6.85;84.80;102366.47;4993516;28;20046;-51
2021/11/16 04:20:34;;;;;;;36.88;25.52;;;;;;;6.87;84.79;102362.50;4993006;28;20136;-50
2021/11/16 04:23:05;;;;;;;41.35;26.63;;;;;;;6.86;84.67;102360.03;4994130;28;20481;-49
2021/11/16 04:25:33;;;;;;;36.03;25.73;;;;;;;6.87;84.72;102361.69;4994228;28;20034;-51
2021/11/16 04:28:02;;;;;;;37.33;26.92;;;;;;;6.88;84.87;102357.91;4992607;28;20518;-51
2021/11/16 04:30:31;;;;;;;39.78;26.77;;;;;;;6.86;84.82;102360.84;4993091;28;20157;-52
2021/11/16 04:32:59;;;;;;;38.22;27.65;;;;;;;6.77;84.12;102356.66;4992903;28;20045;-52
2021/11/16 04:35:26;;;;;;;39.92;26.65;;;;;;;6.66;85.06;102366.19;4993929;28;20409;-52
2021/11/16 04:37:57;;;;;;;37.67;26.05;;;;;;;6.56;85.57;102354.94;4992931;28;20125;-52
2021/11/16 04:40:32;;;;;;;40.38;28.17;;;;;;;6.52;85.52;102356.41;4996414;28;20034;-52
2021/11/16 04:43:04;;;;;;;39.65;26.90;;;;;;;6.48;86.36;102345.13;4992841;28;20093;-50
2021/11/16 04:45:32;;;;;;;42.40;29.08;;;;;;;6.49;86.06;102348.66;4993583;28;20072;-51
2021/11/16 05:04:38;;;;;;;39.05;27.13;;;;;;;6.39;87.55;102349.03;4932406;29;20046;-52
2021/11/16 05:07:13;;;;;;;39.28;27.17;;;;;;;6.50;86.88;102343.03;4932081;29;20055;-52
2021/11/16 05:09:44;;;;;;;39.97;27.95;;;;;;;6.59;86.33;102355.38;4932472;29;20150;-52
2021/11/16 05:12:12;;;;;;;41.45;27.65;;;;;;;6.67;86.45;102351.63;4932051;29;20079;-51
2021/11/16 05:14:40;;;;;;;43.88;29.48;;;;;;;6.71;85.72;102360.19;4932578;29;20932;-51
2021/11/16 05:17:08;;;;;;;42.85;28.60;;;;;;;6.72;85.73;102354.56;4932013;29;20036;-50
2021/11/16 05:19:36;;;;;;;41.30;28.10;;;;;;;6.75;85.50;102362.28;4932361;29;20107;-53
2021/11/16 05:22:04;;;;;;;39.47;27.13;;;;;;;6.77;85.13;102356.66;4932455;29;20446;-51
2021/11/16 05:24:32;;;;;;;41.03;29.20;;;;;;;6.76;85.13;102355.00;4932652;29;20094;-51
2021/11/16 05:27:00;;;;;;;42.33;28.80;;;;;;;6.73;84.92;102363.53;4951967;28;20074;-51
2021/11/16 05:29:28;;;;;;;39.17;27.88;;;;;;;6.67;84.84;102362.47;4992275;28;20158;-51
2021/11/16 05:31:56;;;;;;;38.38;26.65;;;;;;;6.66;85.87;102366.19;4992344;28;20042;-52
2021/11/16 05:34:23;;;;;;;42.97;28.42;;;;;;;6.70;85.30;102372.06;4992261;28;20141;-48
2021/11/16 05:36:51;;;;;;;43.72;28.80;;;;;;;6.71;85.52;102371.88;4992756;28;20073;-50
2021/11/16 05:39:19;;;;;;;42.53;28.83;;;;;;;6.73;84.93;102371.66;4993636;28;20045;-52
2021/11/16 05:41:47;;;;;;;39.63;27.85;;;;;;;6.69;85.05;102367.69;4992463;28;20061;-49
2021/11/16 05:44:16;;;;;;;44.45;29.15;;;;;;;6.68;85.94;102369.53;4991920;28;20046;-50
2021/11/16 05:46:44;;;;;;;41.05;27.70;;;;;;;6.61;85.97;102368.69;4993114;28;20074;-52
2021/11/16 05:49:12;;;;;;;46.80;29.27;;;;;;;6.56;86.70;102363.06;4992100;28;20093;-52
2021/11/16 05:51:39;;;;;;;44.22;29.40;;;;;;;6.42;85.90;102366.75;4994348;28;20444;-51
2021/11/16 05:54:15;;;;;;;49.50;30.15;;;;;;;6.28;87.33;102361.28;4995961;28;20042;-51
2021/11/16 05:56:43;;;;;;;41.47;28.05;;;;;;;6.30;88.16;102371.91;4995474;28;20042;-52
2021/11/16 05:59:11;;;;;;;43.17;28.92;;;;;;;6.16;87.79;102366.44;5010077;28;20050;-51
2021/11/16 06:01:39;;;;;;;46.92;30.30;;;;;;;6.16;88.64;102361.03;4995777;28;20101;-51
2021/11/16 06:04:08;;;;;;;43.50;29.30;;;;;;;6.23;88.13;102357.50;4994975;28;20371;-51
2021/11/16 06:06:38;;;;;;;45.90;29.30;;;;;;;6.29;87.95;102364.81;4995218;28;20038;-52
2021/11/16 06:09:07;;;;;;;44.47;29.35;;;;;;;6.36;88.42;102360.28;4996412;28;20497;-49
2021/11/16 06:11:35;;;;;;;44.90;28.50;;;;;;;6.34;87.29;102355.06;4995155;28;20096;-51
2021/11/16 06:14:03;;;;;;;40.42;27.63;;;;;;;6.30;87.28;102356.50;4995419;28;20034;-52
2021/11/16 06:16:32;;;;;;;47.22;29.48;;;;;;;6.36;87.24;102360.28;4995083;28;20046;-51
2021/11/16 06:19:04;;;;;;;40.55;28.27;;;;;;;6.42;87.30;102355.91;4996452;28;20044;-52
2021/11/16 06:21:32;;;;;;;41.42;27.77;;;;;;;6.48;86.80;102358.66;4303410;28;10000792;-54
2021/11/16 06:24:00;;;;;;;43.13;27.63;;;;;;;6.54;86.44;102359.72;4993187;28;20078;-51
2021/11/16 06:26:32;;;;;;;41.08;26.42;;;;;;;6.53;85.91;102358.06;4992856;28;20050;-53
2021/11/16 06:29:04;;;;;;;40.03;26.75;;;;;;;6.49;85.53;102360.31;4992945;28;20050;-54
2021/11/16 06:31:33;;;;;;;43.10;28.60;;;;;;;6.48;86.25;102353.25;4998401;28;20492;-53
2021/11/16 06:34:03;;;;;;;44.53;27.67;;;;;;;6.50;86.38;102362.00;4992124;28;20081;-52
2021/11/16 06:36:33;;;;;;;42.95;28.13;;;;;;;6.56;85.96;102357.63;4993183;28;20141;-52
2021/11/16 06:39:05;;;;;;;43.67;29.30;;;;;;;6.58;86.21;102360.97;4993042;28;20080;-48
2021/11/16 06:41:33;;;;;;;44.53;29.10;;;;;;;6.58;86.00;102363.69;4994285;28;20045;-52
2021/11/16 06:44:01;;;;;;;41.70;28.90;;;;;;;6.58;85.94;102364.50;4991950;28;20050;-51
2021/11/16 06:46:30;;;;;;;40.47;28.10;;;;;;;6.60;86.59;102364.31;4992139;28;20057;-52
2021/11/16 06:48:59;;;;;;;44.70;28.75;;;;;;;6.61;86.31;102364.13;4992791;28;20061;-52
2021/11/16 06:51:27;;;;;;;44.10;29.73;;;;;;;6.60;85.87;102362.44;5000491;28;20042;-52
2021/11/16 06:53:55;;;;;;;43.05;29.10;;;;;;;6.57;86.38;102373.69;4994401;28;20121;-51
2021/11/16 06:56:26;;;;;;;43.90;29.33;;;;;;;6.58;86.69;102363.69;4992197;28;20081;-50
2021/11/16 06:58:54;;;;;;;45.72;30.48;;;;;;;6.59;86.25;102365.34;4992427;28;20061;-49
2021/11/16 07:01:21;;;;;;;44.00;30.08;;;;;;;6.59;87.02;102358.09;4993124;28;21796;-51
2021/11/16 07:03:50;;;;;;;46.63;30.58;;;;;;;6.51;86.23;102365.53;4992496;28;20074;-53
2021/11/16 07:06:19;;;;;;;46.67;31.58;;;;;;;6.46;87.23;102362.59;4992436;28;20514;-52
2021/11/16 07:08:47;;;;;;;48.15;30.65;;;;;;;6.43;87.35;102357.59;4990848;28;20057;-53
2021/11/16 07:11:19;;;;;;;43.90;29.38;;;;;;;6.40;88.07;102358.84;4993326;28;20042;-52
2021/11/16 07:14:04;;;;;;;40.03;26.17;;;;;;;6.47;88.83;102356.13;4992121;28;20074;-53
2021/11/16 07:16:55;;;;;;;45.05;28.85;;;;;;;6.48;87.89;102358.66;4991600;28;20042;-54
2021/11/16 07:19:33;;;;;;;42.95;29.25;;;;;;;6.39;87.71;102355.28;4986096;28;20047;-52
2021/11/16 07:22:07;;;;;;;44.15;29.60;;;;;;;6.36;88.62;102361.09;4988504;28;20867;-53
2021/11/16 07:24:51;;;;;;;44.72;29.60;;;;;;;6.37;88.83;102362.78;4991601;28;20038;-52
2021/11/16 07:27:21;;;;;;;44.15;28.70;;;;;;;6.40;88.11;102356.97;4990601;28;20861;-52
2021/11/16 07:29:51;;;;;;;44.22;29.27;;;;;;;6.40;88.26;102366.97;4991900;28;20038;-51
2021/11/16 07:32:30;;;;;;;43.88;28.17;;;;;;;6.42;87.97;102362.16;4991363;28;20046;-53
2021/11/16 07:35:00;;;;;;;42.60;28.73;;;;;;;6.46;87.71;102362.59;4991496;28;20081;-52
2021/11/16 07:37:30;;;;;;;50.40;28.92;;;;;;;6.49;87.99;102363.03;4991259;28;20043;-52
2021/11/16 07:40:07;;;;;;;46.65;29.35;;;;;;;6.50;87.46;102369.28;5001371;28;20049;-52
2021/11/16 07:42:41;;;;;;;43.33;28.85;;;;;;;6.51;87.48;102368.25;4991234;28;20375;-53
2021/11/16 07:45:21;;;;;;;43.17;29.20;;;;;;;6.55;87.42;102369.53;4991958;28;20052;-53
2021/11/16 07:48:22;;;;;;;41.28;27.73;;;;;;;6.56;87.78;102371.19;4984034;28;20050;-56
2021/11/16 07:50:52;;;;;;;41.17;27.45;;;;;;;6.51;86.96;102376.38;5002404;28;20038;-51
2021/11/16 07:53:34;;;;;;;43.22;28.45;;;;;;;6.44;87.77;102370.09;4993807;28;20425;-53
2021/11/16 07:56:06;;;;;;;41.08;27.75;;;;;;;6.40;87.75;102367.78;4993302;28;20069;-48
2021/11/16 07:58:39;;;;;;;44.42;26.80;;;;;;;6.37;87.47;102376.34;4992933;28;20049;-47
2021/11/16 08:01:15;;;;;;;39.85;26.30;;;;;;;6.33;87.61;102371.53;4993952;28;20433;-51
2021/11/16 08:03:52;;;;;;;39.45;25.80;;;;;;;6.29;88.22;102370.25;4993121;28;20053;-48
2021/11/16 08:06:30;;;;;;;34.65;24.25;;;;;;;6.34;88.29;102370.47;4993557;28;20054;-47
2021/11/16 08:09:11;;;;;;;37.10;25.05;;;;;;;6.42;88.34;102372.16;4994268;28;20050;-47
2021/11/16 08:11:44;;;;;;;39.30;25.02;;;;;;;6.51;88.26;102373.66;4983483;28;20057;-49
2021/11/16 08:14:15;;;;;;;38.08;25.27;;;;;;;6.55;87.31;102369.53;4992056;28;20046;-47
2021/11/16 08:16:57;;;;;;;38.88;24.98;;;;;;;6.57;86.96;102360.16;4993236;28;20050;-47
2021/11/16 08:19:30;;;;;;;41.08;25.75;;;;;;;6.58;87.13;102356.38;4994408;28;20057;-47
2021/11/16 08:22:02;;;;;;;39.95;26.58;;;;;;;6.56;87.02;102355.75;4993022;28;20042;-47
2021/11/16 08:24:38;;;;;;;46.30;31.85;;;;;;;6.56;87.43;102349.50;4992078;28;20069;-47
2021/11/16 08:27:18;;;;;;;41.50;28.10;;;;;;;6.54;87.19;102349.72;4992211;28;20050;-49
2021/11/16 08:30:02;;;;;;;41.17;26.58;;;;;;;6.51;86.44;102352.00;4992452;28;20050;-50
2021/11/16 08:32:38;;;;;;;40.92;26.52;;;;;;;6.43;86.35;102353.03;4978939;28;20034;-48
2021/11/16 08:35:10;;;;;;;32.28;17.65;;;;;;;6.45;87.72;102347.41;4985175;28;20089;-45
2021/11/16 08:37:44;;;;;;;35.33;22.35;;;;;;;6.55;87.11;102347.84;4992572;28;20054;-49
2021/11/16 08:40:20;;;;;;;38.85;24.73;;;;;;;6.61;86.35;102355.16;4997437;28;20046;-49
2021/11/16 08:43:01;;;;;;;38.28;24.60;;;;;;;6.64;85.86;102356.63;4979341;28;20053;-50
2021/11/16 08:45:31;;;;;;;38.10;25.33;;;;;;;6.63;85.33;102346.84;4992416;28;20417;-42
2021/11/16 08:48:09;;;;;;;36.97;24.00;;;;;;;6.62;86.23;102348.72;4994071;28;20042;-47
2021/11/16 08:50:44;;;;;;;38.88;24.60;;;;;;;6.61;85.86;102347.03;4992991;28;20034;-48
2021/11/16 08:53:14;;;;;;;35.60;23.33;;;;;;;6.62;85.44;102354.13;4992750;28;20042;-51
2021/11/16 08:55:43;;;;;;;37.65;24.50;;;;;;;6.65;86.16;102352.88;4992323;28;20042;-47
2021/11/16 08:58:14;;;;;;;38.65;24.00;;;;;;;6.69;85.71;102348.72;4992556;28;20523;-46
2021/11/16 09:00:53;;;;;;;36.78;24.50;;;;;;;6.71;85.29;102335.81;4993419;28;20432;-50
2021/11/16 09:03:26;;;;;;;40.17;25.60;;;;;;;6.71;84.78;102335.81;4992614;28;20501;-47
2021/11/16 09:05:54;;;;;;;42.15;26.65;;;;;;;6.64;84.72;102333.09;4992501;28;20053;-47
2021/11/16 09:08:25;;;;;;;44.10;26.58;;;;;;;6.59;85.80;102332.84;4992763;28;20053;-45
2021/11/16 09:11:10;;;;;;;42.20;27.20;;;;;;;6.53;86.22;102339.91;5005190;28;20046;-45
2021/11/16 09:13:39;;;;;;;42.78;28.25;;;;;;;6.50;86.90;102336.81;4981391;28;20030;-45
2021/11/16 09:16:11;;;;;;;39.85;27.17;;;;;;;6.49;87.38;102338.66;4992353;28;20046;-49
2021/11/16 09:18:43;;;;;;;43.50;27.65;;;;;;;6.46;87.35;102324.69;4993406;28;20036;-48
2021/11/16 09:21:14;;;;;;;41.65;26.85;;;;;;;6.45;87.48;102331.16;4992706;28;20055;-46
2021/11/16 09:23:50;;;;;;;38.92;27.48;;;;;;;6.46;87.91;102330.13;4991839;28;20220;-49
2021/11/16 09:26:25;;;;;;;37.88;25.73;;;;;;;6.50;87.70;102331.38;4992848;28;20485;-46
2021/11/16 09:28:56;;;;;;;40.15;27.17;;;;;;;6.53;87.32;102323.69;4995651;28;20497;-48
2021/11/16 09:31:27;;;;;;;38.15;24.75;;;;;;;6.54;87.00;102329.91;5003162;28;20056;-46
2021/11/16 09:33:59;;;;;;;37.00;25.52;;;;;;;6.53;86.88;102329.09;4995761;28;20038;-46
2021/11/16 09:36:33;;;;;;;38.15;25.55;;;;;;;6.55;87.48;102326.19;4994602;28;20413;-47
2021/11/16 09:39:07;;;;;;;37.42;25.10;;;;;;;6.52;86.88;102316.59;4995711;28;20050;-48
2021/11/16 09:41:42;;;;;;;43.58;26.45;;;;;;;6.51;87.09;102314.91;4996908;28;20050;-45
2021/11/16 09:44:17;;;;;;;41.95;26.45;;;;;;;6.50;87.20;102317.84;4995637;28;20505;-47
2021/11/16 09:46:48;;;;;;;41.00;25.88;;;;;;;6.48;87.81;102320.75;4995993;28;20046;-48
2021/11/16 09:49:17;;;;;;;40.08;24.60;;;;;;;6.45;86.56;102314.94;4995247;28;20046;-49
2021/11/16 09:51:56;;;;;;;42.53;26.05;;;;;;;6.42;87.50;102320.72;4997726;28;20406;-50
2021/11/16 09:54:24;;;;;;;40.25;24.98;;;;;;;6.40;87.73;102321.78;4994265;28;20034;-49
2021/11/16 09:57:26;;;;;;;41.28;26.80;;;;;;;6.43;87.99;102317.00;4995160;28;20069;-50
2021/11/16 10:00:06;;;;;;;38.55;25.30;;;;;;;6.50;88.08;102315.13;4907578;29;20520;-53
2021/11/16 10:02:36;;;;;;;40.80;27.40;;;;;;;6.53;88.47;102315.56;4915644;29;20051;-49
2021/11/16 10:05:06;;;;;;;38.20;25.45;;;;;;;6.61;88.50;102319.94;4916587;29;20063;-52
2021/11/16 10:07:34;;;;;;;37.83;26.73;;;;;;;6.70;88.46;102313.31;4916098;29;20160;-46
2021/11/16 10:10:04;;;;;;;39.45;25.58;;;;;;;6.76;87.46;102311.66;4916129;29;20048;-49
2021/11/16 10:12:59;;;;;;;41.53;26.45;;;;;;;6.76;87.03;102312.50;4916001;29;20036;-49
2021/11/16 10:15:30;;;;;;;41.73;26.60;;;;;;;6.74;88.25;102309.16;4906982;29;20048;-47
2021/11/16 10:17:58;;;;;;;43.40;25.83;;;;;;;6.73;88.68;102312.06;4915818;29;20040;-45
2021/11/16 10:20:31;;;;;;;43.13;26.50;;;;;;;6.74;88.57;102309.16;4916158;29;20040;-49
2021/11/16 10:23:31;;;;;;;40.20;27.08;;;;;;;6.72;88.33;102304.97;4915593;29;20049;-49
2021/11/16 10:26:00;;;;;;;38.58;25.60;;;;;;;6.69;88.02;102302.69;4915836;29;20055;-47
2021/11/16 10:28:30;;;;;;;37.88;25.58;;;;;;;6.65;87.88;102301.44;4915549;29;20063;-48
2021/11/16 10:30:59;;;;;;;39.97;27.15;;;;;;;6.67;88.42;102299.34;4916075;29;20048;-47
2021/11/16 10:33:38;;;;;;;39.25;25.17;;;;;;;6.73;88.15;102295.81;4915839;29;20067;-46
2021/11/16 10:36:11;;;;;;;37.97;24.40;;;;;;;6.72;87.31;102299.56;4961891;28;20057;-44
2021/11/16 10:38:45;;;;;;;45.03;25.90;;;;;;;6.70;87.67;102288.94;4999277;28;20050;-46
2021/11/16 10:41:22;;;;;;;41.25;25.23;;;;;;;6.71;87.99;102292.47;4995052;28;20042;-47
2021/11/16 10:44:17;;;;;;;39.22;24.65;;;;;;;6.69;87.68;102289.97;4995170;28;20057;-49
2021/11/16 10:46:45;;;;;;;37.67;24.83;;;;;;;6.73;87.38;102288.50;5000918;28;20505;-45
2021/11/16 10:49:17;;;;;;;38.47;24.15;;;;;;;6.77;86.79;102281.63;4994388;28;20653;-45
2021/11/16 10:51:46;;;;;;;39.42;25.33;;;;;;;6.76;86.95;102274.56;4994361;28;20050;-45
2021/11/16 10:54:16;;;;;;;34.67;22.13;;;;;;;6.75;87.01;102275.59;4994104;28;20045;-48
2021/11/16 10:56:45;;;;;;;41.25;23.73;;;;;;;6.76;87.69;102274.56;5001810;28;20043;-48
2021/11/16 10:59:19;;;;;;;39.30;25.50;;;;;;;6.73;87.57;102266.84;4994258;28;20097;-47
2021/11/16 11:01:53;;;;;;;41.30;26.63;;;;;;;6.73;87.59;102261.41;4994833;28;20046;-48
2021/11/16 11:04:24;;;;;;;41.15;24.70;;;;;;;6.72;88.33;102262.47;4995623;28;20394;-44
2021/11/16 11:06:53;;;;;;;42.25;25.65;;;;;;;6.66;87.75;102263.28;4994475;28;20049;-43
2021/11/16 11:09:25;;;;;;;40.85;24.70;;;;;;;6.61;87.36;102255.81;4993951;28;20085;-47
2021/11/16 11:11:54;;;;;;;38.58;23.70;;;;;;;6.61;88.46;102265.78;4994221;28;20046;-45
2021/11/16 11:14:23;;;;;;;36.03;23.25;;;;;;;6.63;88.28;102263.69;4994558;28;20485;-45
2021/11/16 11:16:56;;;;;;;39.83;24.45;;;;;;;6.62;88.10;102256.63;4994164;28;20046;-49
2021/11/16 11:19:34;;;;;;;36.83;22.65;;;;;;;6.59;88.33;102260.59;4994227;28;20038;-48
2021/11/16 11:22:16;;;;;;;38.88;23.88;;;;;;;6.56;87.69;102260.16;4994026;28;20424;-46
2021/11/16 11:24:49;;;;;;;36.72;22.98;;;;;;;6.52;88.06;102253.50;4994125;28;20417;-49
2021/11/16 11:27:32;;;;;;;33.15;21.30;;;;;;;6.54;88.16;102251.38;4992863;28;20046;-49
2021/11/16 11:30:02;;;;;;;41.67;22.92;;;;;;;6.59;86.95;102251.59;4993947;28;20042;-47
2021/11/16 11:32:37;;;;;;;35.60;22.02;;;;;;;6.58;86.80;102244.53;4993569;28;20508;-46
2021/11/16 11:35:21;;;;;;;35.28;23.50;;;;;;;6.57;87.25;102251.84;4993665;28;20517;-47
2021/11/16 11:37:57;;;;;;;36.55;23.45;;;;;;;6.55;87.40;102250.38;5004325;28;20061;-46
2021/11/16 11:40:36;;;;;;;40.35;25.13;;;;;;;6.54;87.42;102243.28;4993979;28;20058;-46
2021/11/16 11:43:06;;;;;;;37.58;24.98;;;;;;;6.51;88.01;102244.53;4993825;28;20465;-46
2021/11/16 11:45:38;;;;;;;39.58;25.95;;;;;;;6.49;88.35;102235.75;4993116;28;20400;-45
2021/11/16 11:48:12;;;;;;;40.65;26.83;;;;;;;6.47;88.65;102237.00;4994613;28;20489;-47
2021/11/16 11:50:48;;;;;;;42.15;27.13;;;;;;;6.43;88.85;102230.34;4993384;28;20054;-47
2021/11/16 11:53:29;;;;;;;39.95;26.13;;;;;;;6.43;89.63;102241.19;4993109;28;20498;-47